createdAt,value
2024-05-09T00:15:14.475Z,7.9
2024-05-09T00:35:14.222Z,7.4
2024-05-09T00:55:13.982Z,7.3
2024-05-09T01:15:13.766Z,7.1
2024-05-09T01:35:13.670Z,7
2024-05-09T01:55:13.329Z,6.2
2024-05-09T02:15:13.157Z,6.6
2024-05-09T02:35:13.008Z,6.3
2024-05-09T02:55:12.705Z,6
2024-05-09T03:15:12.487Z,6
2024-05-09T03:35:12.367Z,5.8
2024-05-09T03:55:12.293Z,6.5
2024-05-09T04:35:11.724Z,7.8
2024-05-09T05:15:12.756Z,8.9
2024-05-09T05:35:11.051Z,8.9
2024-05-09T05:55:10.958Z,9
2024-05-09T06:15:10.642Z,9.3
2024-05-09T06:35:10.410Z,9.5
2024-05-09T06:55:10.154Z,9.9
2024-05-09T07:15:10.008Z,10.1
2024-05-09T07:35:09.732Z,10.5
2024-05-09T07:55:13.398Z,10.8
2024-05-09T08:15:09.333Z,11.8
2024-05-09T08:35:09.028Z,12.7
2024-05-09T08:55:08.953Z,14.3
2024-05-09T09:15:08.706Z,19.5
2024-05-09T09:35:08.408Z,19.6
2024-05-09T09:55:08.582Z,19.3
2024-05-09T10:35:07.806Z,23.1
2024-05-09T10:55:07.632Z,21.7
2024-05-09T11:15:07.312Z,21.6
2024-05-09T11:35:07.012Z,19.8
2024-05-09T11:55:06.861Z,22.3
2024-05-09T12:35:06.459Z,23.7
2024-05-09T12:55:06.136Z,19.8
2024-05-09T13:15:06.067Z,19.7
2024-05-09T14:15:05.279Z,21
2024-05-09T14:35:05.196Z,21.5
2024-05-09T14:55:04.842Z,20.8
2024-05-09T15:15:04.590Z,23.5
2024-05-09T15:35:04.331Z,22.3
2024-05-09T15:55:04.221Z,19.7
2024-05-09T16:15:03.964Z,19.1
2024-05-09T16:35:03.740Z,19.3
2024-05-09T16:55:03.580Z,19.8
2024-05-09T17:15:03.435Z,18.9
2024-05-09T17:35:03.337Z,18.6
2024-05-09T17:55:02.868Z,17.9
2024-05-09T18:15:26.488Z,17.4
2024-05-09T18:35:02.515Z,17
2024-05-09T18:55:02.300Z,16.6
2024-05-09T19:15:03.512Z,15.8
2024-05-09T19:35:01.702Z,14.9
2024-05-09T19:55:01.518Z,13.7
2024-05-09T20:15:01.497Z,13.1
2024-05-09T20:35:00.986Z,13.8
2024-05-09T20:55:00.862Z,13.6
2024-05-09T21:15:00.644Z,13.1
2024-05-09T21:35:00.341Z,11.5
2024-05-09T21:55:12.630Z,10.6
2024-05-09T22:14:59.935Z,10.1
2024-05-09T22:34:59.752Z,9.6
2024-05-09T23:14:59.637Z,9.1
2024-05-09T23:34:59.215Z,8.9
2024-05-09T23:54:58.866Z,8.9
